Time;durP1;ratioP1;P1;durP2;ratioP2;P2;SDS_P1;SDS_P2;PMS_P1;PMS_P2;Temp;Humidity;BMP_temperature;BMP_pressure;BME280_temperature;BME280_humidity;BME280_pressure;Samples;Min_cycle;Max_cycle;Signal;HPM_P1;HPM_P2
2022/12/15 00:38:43;;;;;;;27.13;22.37;;;-5.00;99.90;;;;;;5053625;28;20427;-76
2022/12/15 00:41:12;;;;;;;29.10;23.00;;;-5.00;99.90;;;;;;5045592;28;20434;-76
2022/12/15 00:43:40;;;;;;;26.33;21.77;;;-5.00;99.90;;;;;;5063897;28;20477;-76
2022/12/15 00:48:56;;;;;;;29.67;23.23;;;-5.00;99.90;;;;;;5064841;28;20442;-76
2022/12/15 01:21:50;;;;;;;30.37;22.90;;;-4.80;99.90;;;;;;5053143;28;20452;-76
2022/12/15 01:24:18;;;;;;;30.97;24.87;;;-4.80;99.90;;;;;;5052776;28;20482;-76
2022/12/15 01:26:46;;;;;;;31.00;25.70;;;-4.80;99.90;;;;;;5052918;28;20450;-76
2022/12/15 01:29:14;;;;;;;33.57;25.13;;;-4.80;99.90;;;;;;5054232;28;20945;-76
2022/12/15 01:31:42;;;;;;;33.50;24.00;;;-4.80;99.90;;;;;;5051744;28;20516;-76
2022/12/15 01:34:11;;;;;;;27.70;23.47;;;-4.70;99.90;;;;;;5052482;28;20462;-76
2022/12/15 01:36:39;;;;;;;29.17;23.47;;;-4.70;99.90;;;;;;5054095;28;20795;-76
2022/12/15 01:39:09;;;;;;;33.20;26.57;;;-4.70;99.90;;;;;;5052525;28;20959;-76
2022/12/15 01:41:36;;;;;;;28.00;22.60;;;-4.70;99.90;;;;;;5052534;28;20834;-76
2022/12/15 01:44:17;;;;;;;28.30;24.37;;;-4.70;99.90;;;;;;5053637;28;20478;-76
2022/12/15 01:46:46;;;;;;;31.20;22.67;;;-4.70;99.90;;;;;;5053968;28;20913;-76
2022/12/15 01:49:16;;;;;;;30.97;24.23;;;-4.70;99.90;;;;;;5052649;28;20505;-76
2022/12/15 01:51:48;;;;;;;29.57;24.43;;;-4.70;99.90;;;;;;5052368;28;20488;-75
2022/12/15 01:54:23;;;;;;;29.67;24.90;;;-4.60;99.90;;;;;;5053692;28;20450;-76
2022/12/15 01:56:55;;;;;;;31.33;22.13;;;-4.60;99.90;;;;;;5052816;28;20434;-76
2022/12/15 01:59:27;;;;;;;32.40;23.77;;;-4.60;99.90;;;;;;5053788;28;20514;-76
2022/12/15 02:01:55;;;;;;;30.00;23.57;;;-4.60;99.90;;;;;;5053455;28;20426;-76
2022/12/15 02:04:24;;;;;;;28.17;23.77;;;-4.60;99.90;;;;;;5053395;28;20481;-76
2022/12/15 02:06:52;;;;;;;28.13;23.53;;;-4.60;99.90;;;;;;5053264;28;20434;-76
2022/12/15 02:09:24;;;;;;;28.40;22.63;;;-4.60;99.90;;;;;;5053293;28;20452;-76
2022/12/15 02:12:00;;;;;;;36.20;24.13;;;-4.60;99.90;;;;;;5052003;28;20434;-76
2022/12/15 02:14:47;;;;;;;30.80;24.70;;;-4.60;99.90;;;;;;5053599;28;20461;-76
2022/12/15 02:17:28;;;;;;;29.80;22.80;;;-4.60;99.90;;;;;;5053577;28;20795;-76
2022/12/15 02:20:34;;;;;;;26.90;21.67;;;-4.60;99.90;;;;;;5052009;28;20466;-76
2022/12/15 02:23:50;;;;;;;29.70;23.70;;;-4.60;99.90;;;;;;5051518;28;20462;-76
2022/12/15 02:26:38;;;;;;;31.10;24.47;;;-4.60;99.90;;;;;;5053337;28;20442;-76
2022/12/15 02:29:21;;;;;;;26.47;21.90;;;-4.60;99.90;;;;;;5052037;28;20439;-75
2022/12/15 02:31:57;;;;;;;29.93;24.83;;;-4.60;99.90;;;;;;5053665;28;20448;-76
2022/12/15 02:34:33;;;;;;;30.33;23.40;;;-4.60;99.90;;;;;;5053265;28;20451;-76
2022/12/15 02:37:06;;;;;;;32.10;26.37;;;-4.60;99.90;;;;;;5051942;28;20442;-75
2022/12/15 02:39:34;;;;;;;28.07;22.50;;;-4.60;99.90;;;;;;5053327;28;20434;-76
2022/12/15 02:42:02;;;;;;;28.47;23.40;;;-4.60;99.90;;;;;;5053468;28;20438;-76
2022/12/15 02:44:34;;;;;;;31.03;24.70;;;-4.50;99.90;;;;;;5051809;28;20567;-76
2022/12/15 02:47:27;;;;;;;26.10;22.17;;;-4.50;99.90;;;;;;5052006;28;20789;-76
2022/12/15 02:50:18;;;;;;;33.83;24.23;;;-4.50;99.90;;;;;;5049438;28;20438;-76
2022/12/15 02:52:58;;;;;;;27.83;23.00;;;-4.50;99.90;;;;;;5053277;28;20415;-76
2022/12/15 02:55:36;;;;;;;26.37;23.40;;;-4.50;99.90;;;;;;5051615;28;20477;-75
2022/12/15 02:58:12;;;;;;;29.30;24.70;;;-4.50;99.90;;;;;;5053168;28;20418;-76
2022/12/15 03:00:46;;;;;;;27.73;22.93;;;-4.50;99.90;;;;;;5053213;28;20422;-76
2022/12/15 03:03:19;;;;;;;28.43;24.63;;;-4.40;99.90;;;;;;5051657;28;20532;-75
2022/12/15 03:05:52;;;;;;;26.60;21.50;;;-4.50;99.90;;;;;;5052678;28;20484;-75
2022/12/15 03:08:20;;;;;;;25.37;21.70;;;-4.50;99.90;;;;;;5051613;28;20522;-75
2022/12/15 03:10:51;;;;;;;24.40;21.53;;;-4.50;99.90;;;;;;5052995;28;20451;-75
2022/12/15 03:13:22;;;;;;;25.57;21.67;;;-4.50;99.90;;;;;;5049748;28;20442;-75
2022/12/15 03:15:51;;;;;;;30.70;24.63;;;-4.50;99.90;;;;;;5053260;28;21037;-75
2022/12/15 03:18:21;;;;;;;28.10;24.20;;;-4.50;99.90;;;;;;5051368;28;20466;-76
2022/12/15 03:20:50;;;;;;;27.83;23.20;;;-4.50;99.90;;;;;;5051480;28;20434;-75
2022/12/15 03:23:18;;;;;;;27.33;21.30;;;-4.50;99.90;;;;;;5051548;28;20914;-76
2022/12/15 03:25:46;;;;;;;28.00;22.90;;;-4.50;99.90;;;;;;5052533;28;20477;-75
2022/12/15 03:28:17;;;;;;;27.67;22.47;;;-4.50;99.90;;;;;;5052996;28;20441;-76
2022/12/15 03:30:45;;;;;;;26.03;21.70;;;-4.50;99.90;;;;;;5051456;28;20458;-75
2022/12/15 03:33:18;;;;;;;27.77;21.90;;;-4.50;99.90;;;;;;5052456;28;20434;-75
2022/12/15 03:35:48;;;;;;;25.33;22.47;;;-4.50;99.90;;;;;;5054883;28;21002;-75
2022/12/15 03:38:17;;;;;;;29.10;22.23;;;-4.50;99.90;;;;;;5054827;28;20446;-76
2022/12/15 03:40:45;;;;;;;27.30;21.13;;;-4.50;99.90;;;;;;5055129;28;20820;-76
2022/12/15 03:43:13;;;;;;;27.20;23.60;;;-4.50;99.90;;;;;;5054726;28;20451;-75
2022/12/15 03:45:41;;;;;;;30.80;24.07;;;-4.50;99.90;;;;;;5054507;28;20481;-76
2022/12/15 03:48:09;;;;;;;31.67;24.20;;;-4.40;99.90;;;;;;5055249;28;20485;-75
2022/12/15 03:50:37;;;;;;;26.20;22.83;;;-4.40;99.90;;;;;;5054810;28;20442;-76
2022/12/15 03:53:07;;;;;;;28.17;22.30;;;-4.50;99.90;;;;;;5056110;28;20439;-75
2022/12/15 03:55:35;;;;;;;24.47;21.83;;;-4.40;99.90;;;;;;5054399;28;20468;-76
2022/12/15 03:58:03;;;;;;;28.43;23.10;;;-4.50;99.90;;;;;;5054590;28;20940;-76
2022/12/15 04:00:31;;;;;;;27.00;23.47;;;-4.40;99.90;;;;;;5054794;28;20456;-75
2022/12/15 04:02:59;;;;;;;27.13;23.20;;;-4.50;99.90;;;;;;5053275;28;20535;-76
2022/12/15 04:05:29;;;;;;;27.43;22.73;;;-4.40;99.90;;;;;;5054164;28;20482;-76
2022/12/15 04:07:59;;;;;;;30.70;24.10;;;-4.40;99.90;;;;;;5054328;28;20444;-75
2022/12/15 04:10:31;;;;;;;30.00;23.63;;;-4.40;99.90;;;;;;5055716;28;20446;-76
2022/12/15 04:13:04;;;;;;;33.23;25.13;;;-4.50;99.90;;;;;;5056000;28;20472;-76
2022/12/15 04:15:33;;;;;;;30.30;24.40;;;-4.50;99.90;;;;;;5055543;28;20490;-75
2022/12/15 04:18:02;;;;;;;30.07;23.77;;;-4.50;99.90;;;;;;5053956;28;20446;-76
2022/12/15 04:20:31;;;;;;;27.63;21.40;;;-4.50;99.90;;;;;;5055565;28;20481;-76
2022/12/15 04:23:00;;;;;;;25.83;21.40;;;-4.50;99.90;;;;;;5053942;28;20458;-76
2022/12/15 05:32:12;;;;;;;28.80;24.40;;;-4.40;99.90;;;;;;5055243;28;20434;-75
2022/12/15 05:34:40;;;;;;;29.13;25.00;;;-4.40;99.90;;;;;;5055262;28;20451;-75
2022/12/15 05:37:08;;;;;;;30.03;24.80;;;-4.40;99.90;;;;;;5053953;28;20457;-75
2022/12/15 05:39:36;;;;;;;31.03;25.13;;;-4.40;99.90;;;;;;5053278;28;20453;-75
2022/12/15 05:42:04;;;;;;;29.60;23.77;;;-4.40;99.90;;;;;;5050121;28;20457;-75
2022/12/15 05:44:33;;;;;;;31.20;24.10;;;-4.40;99.90;;;;;;5053941;28;20500;-75
2022/12/15 05:47:01;;;;;;;28.50;24.90;;;-4.30;99.90;;;;;;5052613;28;20474;-75
2022/12/15 05:49:30;;;;;;;26.50;23.40;;;-4.30;99.90;;;;;;5052689;28;20907;-75
2022/12/15 05:51:58;;;;;;;29.50;24.03;;;-4.30;99.90;;;;;;5052686;28;20454;-74
2022/12/15 05:54:27;;;;;;;30.53;27.13;;;-4.30;99.90;;;;;;5053604;28;20454;-74
2022/12/15 05:56:55;;;;;;;27.37;24.47;;;-4.30;99.90;;;;;;5053258;28;21028;-74
2022/12/15 05:59:23;;;;;;;30.10;25.03;;;-4.30;99.90;;;;;;5052576;28;20474;-75
2022/12/15 06:01:51;;;;;;;33.40;27.20;;;-4.30;99.90;;;;;;5053633;28;20446;-75
2022/12/15 06:04:19;;;;;;;28.77;25.27;;;-4.30;99.90;;;;;;5052204;28;21010;-74
2022/12/15 06:06:49;;;;;;;29.80;25.10;;;-4.30;99.90;;;;;;5052376;28;20552;-74
2022/12/15 06:09:17;;;;;;;30.73;26.50;;;-4.30;99.90;;;;;;5053380;28;20436;-74
2022/12/15 06:11:45;;;;;;;29.73;26.33;;;-4.30;99.90;;;;;;5052117;28;20446;-74
2022/12/15 06:14:13;;;;;;;29.03;25.40;;;-4.30;99.90;;;;;;5053178;28;20509;-74
2022/12/15 06:16:41;;;;;;;33.87;25.67;;;-4.30;99.90;;;;;;5053299;28;20932;-74
2022/12/15 06:19:19;;;;;;;30.43;26.20;;;-4.30;99.90;;;;;;5053341;28;20856;-75
2022/12/15 06:21:49;;;;;;;27.43;24.50;;;-4.30;99.90;;;;;;5053601;28;20444;-74
2022/12/15 06:24:17;;;;;;;31.17;25.17;;;-4.40;99.90;;;;;;5051937;28;20469;-74
2022/12/15 06:26:45;;;;;;;31.00;24.43;;;-4.30;99.90;;;;;;5051932;28;20470;-75
2022/12/15 06:29:17;;;;;;;29.03;23.83;;;-4.40;99.90;;;;;;5053491;28;20422;-75
2022/12/15 06:31:45;;;;;;;28.73;25.60;;;-4.40;99.90;;;;;;5051029;28;20456;-73
2022/12/15 06:34:15;;;;;;;27.07;24.17;;;-4.40;99.90;;;;;;5052136;28;20472;-74
2022/12/15 06:36:44;;;;;;;31.83;26.67;;;-4.40;99.90;;;;;;5052944;28;20489;-73
2022/12/15 06:39:15;;;;;;;29.00;25.67;;;-4.40;99.90;;;;;;5053013;28;20448;-74
2022/12/15 06:41:44;;;;;;;31.63;26.23;;;-4.40;99.90;;;;;;5053411;28;20426;-74
2022/12/15 06:44:14;;;;;;;29.47;25.23;;;-4.40;99.90;;;;;;5055350;28;20453;-73
2022/12/15 06:46:44;;;;;;;28.20;25.13;;;-4.40;99.90;;;;;;5054886;28;20592;-73
2022/12/15 06:49:13;;;;;;;32.70;26.60;;;-4.40;99.90;;;;;;5052206;28;20438;-74
2022/12/15 06:51:42;;;;;;;30.57;25.10;;;-4.40;99.90;;;;;;5053426;28;20932;-73
2022/12/15 06:54:11;;;;;;;29.60;24.70;;;-4.40;99.90;;;;;;5053282;28;20452;-74
2022/12/15 06:56:41;;;;;;;27.70;24.33;;;-4.40;99.90;;;;;;5051688;28;21021;-74
2022/12/15 06:59:11;;;;;;;28.30;25.30;;;-4.40;99.90;;;;;;5053219;28;20446;-74
2022/12/15 07:01:40;;;;;;;36.53;29.00;;;-4.40;99.90;;;;;;5052959;28;20531;-74
2022/12/15 07:04:10;;;;;;;28.30;25.10;;;-4.40;99.90;;;;;;5051679;28;20867;-74
2022/12/15 07:06:38;;;;;;;27.83;23.50;;;-4.40;99.90;;;;;;5051604;28;20470;-74
2022/12/15 07:09:12;;;;;;;30.33;23.43;;;-4.40;99.90;;;;;;5055423;28;20430;-74
2022/12/15 07:11:41;;;;;;;28.77;25.10;;;-4.40;99.90;;;;;;5056883;28;20869;-73
2022/12/15 07:14:10;;;;;;;30.43;25.70;;;-4.40;99.90;;;;;;5056497;28;20801;-74
2022/12/15 07:16:39;;;;;;;28.63;25.60;;;-4.40;99.90;;;;;;5055283;28;20851;-73
2022/12/15 07:19:11;;;;;;;27.70;24.80;;;-4.40;99.90;;;;;;5055222;28;20457;-73
2022/12/15 07:21:39;;;;;;;28.03;23.93;;;-4.40;99.90;;;;;;5051933;28;20447;-73
2022/12/15 07:24:10;;;;;;;26.67;23.80;;;-4.40;99.90;;;;;;5055121;28;20480;-74
2022/12/15 07:26:39;;;;;;;32.57;26.80;;;-4.40;99.90;;;;;;5056479;28;20462;-73
2022/12/15 07:29:10;;;;;;;31.47;24.10;;;-4.30;99.90;;;;;;5056458;28;20442;-74
2022/12/15 07:31:38;;;;;;;28.00;24.00;;;-4.30;99.90;;;;;;5055178;28;20442;-74
2022/12/15 07:34:06;;;;;;;30.20;25.50;;;-4.30;99.90;;;;;;5054858;28;20469;-74
2022/12/15 07:36:35;;;;;;;29.00;24.37;;;-4.30;99.90;;;;;;5056034;28;20858;-73
2022/12/15 07:39:04;;;;;;;26.43;23.70;;;-4.30;99.90;;;;;;5056090;28;20844;-74
2022/12/15 07:41:32;;;;;;;32.10;24.27;;;-4.30;99.90;;;;;;5055984;28;20504;-74
2022/12/15 07:44:01;;;;;;;26.83;23.70;;;-4.30;99.90;;;;;;5054663;28;20834;-73
2022/12/15 07:46:30;;;;;;;29.47;23.90;;;-4.30;99.90;;;;;;5056406;28;20818;-74
2022/12/15 07:48:58;;;;;;;29.57;25.20;;;-4.30;99.90;;;;;;5055910;28;20446;-74
2022/12/15 07:51:27;;;;;;;28.13;22.87;;;-4.30;99.90;;;;;;5055823;28;20442;-74
2022/12/15 07:53:55;;;;;;;32.60;23.97;;;-4.30;99.90;;;;;;5055518;28;20461;-74
2022/12/15 07:56:23;;;;;;;28.20;23.53;;;-4.20;99.90;;;;;;5056111;28;20435;-74
2022/12/15 07:58:51;;;;;;;29.00;21.83;;;-4.20;99.90;;;;;;5055726;28;20441;-74
2022/12/15 08:01:20;;;;;;;31.50;24.00;;;-4.20;99.90;;;;;;5055918;28;20916;-74
2022/12/15 08:03:49;;;;;;;31.87;23.23;;;-4.10;99.90;;;;;;5055986;28;20792;-74
2022/12/15 08:06:18;;;;;;;29.80;24.17;;;-4.10;99.90;;;;;;5055121;28;20838;-74
2022/12/15 08:08:46;;;;;;;26.57;22.27;;;-4.00;99.90;;;;;;5055652;28;20959;-74
2022/12/15 08:11:23;;;;;;;29.90;23.70;;;-4.00;99.90;;;;;;5052704;28;20423;-74
2022/12/15 08:13:51;;;;;;;27.30;22.43;;;-3.90;99.90;;;;;;5055596;28;20531;-74
2022/12/15 08:16:40;;;;;;;31.10;23.37;;;-3.90;99.90;;;;;;5054560;28;20434;-74
2022/12/15 08:19:12;;;;;;;24.93;21.70;;;-3.80;99.90;;;;;;5054011;28;20965;-74
2022/12/15 08:21:40;;;;;;;27.43;24.10;;;-3.80;99.90;;;;;;5054266;28;20430;-74
2022/12/15 08:24:09;;;;;;;29.80;23.33;;;-3.70;99.90;;;;;;5054103;28;20458;-74
2022/12/15 08:26:38;;;;;;;28.50;23.90;;;-3.60;99.90;;;;;;5054137;28;20446;-74
2022/12/15 08:29:10;;;;;;;30.10;23.47;;;-3.60;99.90;;;;;;5055306;28;20452;-74
2022/12/15 08:31:58;;;;;;;30.93;24.20;;;-3.50;99.90;;;;;;5053966;28;20434;-73
2022/12/15 08:34:28;;;;;;;27.33;22.97;;;-3.50;99.90;;;;;;5053766;28;20466;-73
2022/12/15 08:36:56;;;;;;;28.83;23.40;;;-3.40;99.90;;;;;;5055036;28;20456;-74
2022/12/15 08:39:24;;;;;;;26.13;23.40;;;-3.40;99.90;;;;;;5055229;28;20444;-73
2022/12/15 08:41:52;;;;;;;31.47;25.23;;;-3.40;99.90;;;;;;5055660;28;20450;-73
2022/12/15 08:44:20;;;;;;;27.37;23.30;;;-3.30;99.90;;;;;;5055081;28;20554;-73
2022/12/15 08:46:50;;;;;;;25.70;23.00;;;-3.20;99.90;;;;;;5055163;28;20441;-75
2022/12/15 08:49:18;;;;;;;26.70;23.87;;;-3.20;99.90;;;;;;5055106;28;20439;-75
2022/12/15 08:51:51;;;;;;;28.83;24.10;;;-3.10;99.90;;;;;;5053663;28;20438;-75
2022/12/15 08:54:20;;;;;;;25.00;22.30;;;-3.00;99.90;;;;;;5054641;28;20463;-75
2022/12/15 08:56:48;;;;;;;27.33;21.80;;;-3.00;99.90;;;;;;5054613;28;20446;-75
2022/12/15 08:59:17;;;;;;;25.43;21.40;;;-3.00;99.90;;;;;;5053317;28;20450;-74
2022/12/15 09:01:46;;;;;;;24.70;22.00;;;-2.90;99.90;;;;;;5052501;28;20485;-74
2022/12/15 09:04:14;;;;;;;25.73;22.97;;;-2.90;99.90;;;;;;5053714;28;20473;-75
2022/12/15 09:06:43;;;;;;;29.93;26.00;;;-2.80;99.90;;;;;;5054920;28;20449;-73
2022/12/15 09:09:16;;;;;;;26.17;23.40;;;-2.80;99.90;;;;;;5054572;28;20913;-74
2022/12/15 09:11:45;;;;;;;28.80;24.70;;;-2.70;99.90;;;;;;5054692;28;20444;-74
2022/12/15 09:14:13;;;;;;;25.20;20.20;;;-2.60;99.90;;;;;;5052997;28;20475;-74
2022/12/15 09:16:41;;;;;;;26.70;24.10;;;-2.60;99.90;;;;;;5053194;28;20877;-74
2022/12/15 09:19:10;;;;;;;25.67;23.03;;;-2.50;99.90;;;;;;5052910;28;20822;-74
2022/12/15 09:21:38;;;;;;;26.57;23.80;;;-2.40;99.90;;;;;;5054245;28;20437;-73
2022/12/15 09:24:06;;;;;;;25.53;22.63;;;-2.30;99.90;;;;;;5054212;28;20454;-73
2022/12/15 09:26:36;;;;;;;25.77;23.03;;;-2.20;99.90;;;;;;5052933;28;20445;-73
2022/12/15 09:29:04;;;;;;;23.83;21.33;;;-2.20;99.90;;;;;;5054314;28;20473;-73
2022/12/15 09:31:37;;;;;;;23.77;21.47;;;-2.10;99.90;;;;;;5051921;28;20453;-74
2022/12/15 09:34:05;;;;;;;26.33;22.03;;;-2.00;99.90;;;;;;5052694;28;21026;-74
2022/12/15 09:36:33;;;;;;;24.30;21.80;;;-2.00;99.90;;;;;;5053854;28;20446;-74
2022/12/15 09:39:02;;;;;;;23.40;21.00;;;-1.90;99.90;;;;;;5052610;28;20865;-74
2022/12/15 09:41:32;;;;;;;23.37;20.30;;;-1.90;99.90;;;;;;5053135;28;20962;-74
2022/12/15 09:44:06;;;;;;;23.17;20.97;;;-1.80;99.90;;;;;;5053778;28;20473;-74
2022/12/15 09:46:44;;;;;;;24.07;21.57;;;-1.80;99.90;;;;;;5052534;28;20435;-74
2022/12/15 09:49:34;;;;;;;24.67;21.30;;;-1.70;99.90;;;;;;5052561;28;21022;-74
2022/12/15 09:52:04;;;;;;;24.20;21.80;;;-1.70;99.90;;;;;;5049266;28;20457;-74
2022/12/15 09:54:40;;;;;;;23.47;21.13;;;-1.60;99.90;;;;;;5053493;28;20985;-74
2022/12/15 09:57:16;;;;;;;22.50;19.83;;;-1.60;99.90;;;;;;5054135;28;20422;-74
2022/12/15 09:59:59;;;;;;;23.43;20.93;;;-1.60;99.90;;;;;;5053371;28;20942;-74
2022/12/15 10:03:01;;;;;;;23.33;20.93;;;-1.50;99.90;;;;;;5053741;28;20449;-74
2022/12/15 10:05:38;;;;;;;24.37;19.73;;;-1.50;99.90;;;;;;5053502;28;20462;-74
2022/12/15 10:08:31;;;;;;;21.40;19.27;;;-1.40;99.90;;;;;;5052298;28;20801;-74
2022/12/15 10:11:02;;;;;;;21.53;19.23;;;-1.40;99.90;;;;;;5053862;28;20883;-74
2022/12/15 10:13:40;;;;;;;22.27;20.00;;;-1.30;99.90;;;;;;5054307;28;20430;-75
2022/12/15 10:16:20;;;;;;;23.30;20.80;;;-1.30;99.90;;;;;;5071660;28;20422;-74
2022/12/15 10:18:57;;;;;;;21.67;19.37;;;-1.30;99.90;;;;;;5072781;28;20441;-74
2022/12/15 10:21:30;;;;;;;21.87;19.67;;;-1.20;99.90;;;;;;5074732;28;20423;-74
2022/12/15 10:24:10;;;;;;;22.13;19.60;;;-1.20;99.90;;;;;;5073970;28;20466;-74
2022/12/15 10:26:41;;;;;;;21.20;19.00;;;-1.10;99.90;;;;;;5067605;28;20409;-74
2022/12/15 10:29:33;;;;;;;21.37;19.03;;;-1.10;99.90;;;;;;5066777;28;20517;-74
2022/12/15 10:32:09;;;;;;;21.53;19.37;;;-1.00;99.90;;;;;;5069466;28;20445;-75
2022/12/15 10:34:38;;;;;;;19.87;17.97;;;-1.00;99.90;;;;;;5065384;28;20453;-74
2022/12/15 10:37:13;;;;;;;20.23;18.13;;;-1.00;99.90;;;;;;5066292;28;20448;-73
2022/12/15 10:39:43;;;;;;;19.40;17.50;;;-0.90;99.90;;;;;;5066937;28;20414;-73
2022/12/15 10:42:14;;;;;;;19.73;17.83;;;-0.90;99.90;;;;;;5059120;28;20465;-73
2022/12/15 10:44:44;;;;;;;20.40;18.30;;;-0.80;99.90;;;;;;5060510;28;20480;-74
2022/12/15 10:47:22;;;;;;;20.10;18.27;;;-0.80;99.90;;;;;;5059559;28;20507;-74
2022/12/15 10:49:50;;;;;;;19.10;17.20;;;-0.70;99.90;;;;;;5058420;28;20457;-74
2022/12/15 10:52:26;;;;;;;19.30;17.30;;;-0.60;99.90;;;;;;5057561;28;20503;-74
2022/12/15 10:54:55;;;;;;;19.03;16.97;;;-0.60;99.90;;;;;;5057116;28;20523;-74
2022/12/15 10:57:27;;;;;;;19.37;16.23;;;-0.60;99.90;;;;;;5057055;28;20438;-74
2022/12/15 10:59:58;;;;;;;19.53;17.60;;;-0.50;99.90;;;;;;5057225;28;20426;-74
2022/12/15 11:02:35;;;;;;;18.40;16.50;;;-0.40;99.90;;;;;;5055530;28;20434;-74
2022/12/15 11:05:14;;;;;;;18.00;16.10;;;-0.40;99.90;;;;;;5055564;28;20497;-74
2022/12/15 11:07:46;;;;;;;17.83;15.47;;;-0.30;99.90;;;;;;5057009;28;20421;-74
2022/12/15 11:10:21;;;;;;;15.70;14.00;;;-0.20;99.90;;;;;;5055428;28;20458;-74
2022/12/15 11:12:59;;;;;;;16.80;15.00;;;-0.20;99.90;;;;;;5056851;28;20426;-74
2022/12/15 11:15:49;;;;;;;16.63;15.00;;;-0.10;99.90;;;;;;5056792;28;20462;-74
2022/12/15 11:18:32;;;;;;;17.93;16.43;;;-0.10;99.90;;;;;;5053328;28;20476;-75
2022/12/15 11:21:05;;;;;;;18.77;14.77;;;0.00;99.90;;;;;;5056725;28;20913;-74
2022/12/15 11:23:51;;;;;;;16.30;14.70;;;0.00;99.90;;;;;;5056656;28;20418;-74
2022/12/15 11:26:39;;;;;;;17.50;15.73;;;0.00;99.90;;;;;;5056364;28;20422;-74
2022/12/15 11:29:15;;;;;;;15.70;14.10;;;0.10;99.90;;;;;;5054987;28;21010;-74
2022/12/15 11:31:46;;;;;;;15.60;14.03;;;0.10;99.90;;;;;;5052075;28;20446;-74
2022/12/15 11:34:20;;;;;;;15.50;14.03;;;0.20;99.90;;;;;;5056177;28;20523;-74
2022/12/15 11:37:06;;;;;;;15.33;13.73;;;0.20;99.90;;;;;;5056412;28;20423;-74
2022/12/15 11:39:48;;;;;;;15.23;13.57;;;0.30;99.90;;;;;;5055524;28;20434;-74
2022/12/15 11:42:29;;;;;;;14.90;13.50;;;0.30;99.90;;;;;;5057146;28;20436;-74
2022/12/15 11:45:06;;;;;;;17.23;14.83;;;0.40;99.90;;;;;;5056716;28;20454;-74
2022/12/15 11:47:42;;;;;;;15.60;13.90;;;0.40;99.90;;;;;;5056758;28;20438;-74
2022/12/15 11:50:26;;;;;;;14.40;13.10;;;0.50;99.90;;;;;;5055588;28;20466;-74
2022/12/15 11:53:09;;;;;;;15.57;13.97;;;0.50;99.90;;;;;;5055839;28;20473;-74
2022/12/15 11:55:45;;;;;;;15.30;13.70;;;0.60;99.90;;;;;;5055263;28;20477;-74
2022/12/15 11:58:29;;;;;;;14.37;12.90;;;0.60;99.90;;;;;;5054590;28;20447;-74
2022/12/15 12:01:04;;;;;;;15.20;13.17;;;0.60;99.90;;;;;;5056150;28;20452;-75
2022/12/15 12:03:42;;;;;;;15.70;14.10;;;0.70;99.90;;;;;;5054603;28;20956;-74
2022/12/15 12:06:22;;;;;;;15.77;14.17;;;0.70;99.90;;;;;;5056142;28;20426;-74
2022/12/15 12:09:03;;;;;;;15.87;14.27;;;0.80;99.90;;;;;;5055780;28;20607;-74
2022/12/15 12:11:36;;;;;;;15.93;14.23;;;0.80;99.90;;;;;;5054226;28;20533;-75
2022/12/15 12:14:17;;;;;;;17.80;15.00;;;0.90;99.90;;;;;;5054433;28;20521;-74
2022/12/15 12:16:57;;;;;;;15.97;14.40;;;0.90;99.90;;;;;;5056312;28;20431;-74
2022/12/15 12:19:49;;;;;;;17.57;15.67;;;0.90;99.90;;;;;;5049700;28;20468;-75
2022/12/15 12:22:24;;;;;;;16.97;15.37;;;1.00;99.90;;;;;;5035728;28;20419;-74
2022/12/15 12:24:58;;;;;;;17.37;15.57;;;1.00;99.90;;;;;;5033986;28;21013;-75
2022/12/15 12:27:38;;;;;;;17.33;15.53;;;1.00;99.90;;;;;;5033994;28;20930;-75
2022/12/15 12:30:13;;;;;;;17.23;15.30;;;1.00;99.90;;;;;;5033906;28;20475;-75
2022/12/15 12:32:52;;;;;;;16.37;14.67;;;1.10;99.90;;;;;;5034025;28;20798;-75
2022/12/15 12:35:30;;;;;;;17.13;15.43;;;1.10;99.90;;;;;;5034010;28;20550;-74
2022/12/15 12:38:10;;;;;;;16.60;15.10;;;1.10;99.90;;;;;;5033924;28;20439;-75
2022/12/15 12:41:03;;;;;;;16.80;15.20;;;1.10;99.90;;;;;;5033761;28;20450;-75
2022/12/15 12:43:37;;;;;;;16.23;14.63;;;1.10;99.90;;;;;;5033719;28;20451;-75
2022/12/15 12:46:16;;;;;;;19.40;17.40;;;1.10;99.90;;;;;;5035245;28;20445;-75
2022/12/15 12:48:50;;;;;;;17.00;15.33;;;1.20;99.90;;;;;;5035104;28;20429;-75
2022/12/15 12:51:31;;;;;;;17.00;15.40;;;1.20;99.90;;;;;;5033663;28;20440;-75
2022/12/15 12:54:05;;;;;;;17.57;16.00;;;1.20;99.90;;;;;;5033572;28;20475;-75
2022/12/15 12:56:45;;;;;;;18.27;16.40;;;1.20;99.90;;;;;;5033538;28;20452;-75
2022/12/15 12:59:38;;;;;;;16.37;14.77;;;1.30;99.90;;;;;;5034958;28;20490;-75
2022/12/15 13:02:46;;;;;;;17.20;15.47;;;1.30;99.90;;;;;;5033373;28;20443;-75
2022/12/15 13:05:30;;;;;;;17.50;15.70;;;1.30;99.90;;;;;;5033186;28;20498;-75
2022/12/15 13:08:17;;;;;;;17.60;15.77;;;1.30;99.90;;;;;;5033257;28;20445;-75
2022/12/15 13:10:51;;;;;;;17.90;16.13;;;1.30;99.90;;;;;;5033085;28;20472;-75
2022/12/15 13:13:45;;;;;;;17.87;16.07;;;1.30;99.90;;;;;;5033265;28;20447;-75
2022/12/15 13:20:19;;;;;;;17.70;16.00;;;1.40;99.90;;;;;;5032928;28;20456;-75
2022/12/15 13:22:52;;;;;;;18.87;17.13;;;1.40;99.90;;;;;;4978578;28;20456;-76
2022/12/15 13:25:40;;;;;;;19.00;16.43;;;1.40;99.90;;;;;;4979611;28;20470;-75
2022/12/15 13:28:50;;;;;;;17.53;15.83;;;1.40;99.90;;;;;;5018132;28;20545;-75
2022/12/15 13:31:31;;;;;;;18.03;16.13;;;1.50;99.90;;;;;;5034137;28;20566;-76
2022/12/15 13:34:15;;;;;;;17.90;16.07;;;1.50;99.90;;;;;;5035468;28;20468;-76
2022/12/15 13:37:07;;;;;;;18.10;16.40;;;1.50;99.90;;;;;;5037571;28;20475;-75
2022/12/15 13:39:58;;;;;;;19.33;15.57;;;1.50;99.90;;;;;;5034842;28;20452;-75
2022/12/15 13:42:45;;;;;;;17.10;15.47;;;1.50;99.90;;;;;;5035738;28;20428;-75
2022/12/15 13:45:46;;;;;;;16.37;14.80;;;1.50;99.90;;;;;;5035265;28;20562;-75
2022/12/15 13:48:39;;;;;;;16.50;14.80;;;1.60;99.90;;;;;;5033002;28;20513;-75
2022/12/15 13:51:29;;;;;;;17.37;15.30;;;1.60;99.90;;;;;;5034548;28;20515;-75
2022/12/15 13:54:04;;;;;;;17.90;16.17;;;1.60;99.90;;;;;;5032749;28;20482;-76
2022/12/15 13:57:04;;;;;;;17.70;15.13;;;1.60;99.90;;;;;;5034411;28;20433;-75
2022/12/15 13:59:45;;;;;;;15.60;14.00;;;1.60;99.90;;;;;;4976207;28;20452;-76
2022/12/15 14:02:32;;;;;;;18.03;16.30;;;1.60;99.90;;;;;;5024187;28;21033;-75
2022/12/15 14:05:07;;;;;;;17.40;15.50;;;1.60;99.90;;;;;;5032435;28;20851;-76
2022/12/15 14:07:40;;;;;;;16.53;14.80;;;1.60;99.90;;;;;;5033394;28;20906;-76
2022/12/15 14:10:19;;;;;;;16.83;15.03;;;1.60;99.90;;;;;;5032248;28;20868;-76
2022/12/15 14:12:51;;;;;;;16.90;15.07;;;1.60;99.90;;;;;;5032251;28;20443;-77
2022/12/15 14:15:27;;;;;;;17.33;15.53;;;1.50;99.90;;;;;;5033823;28;20821;-77
2022/12/15 14:18:01;;;;;;;17.33;15.30;;;1.50;99.90;;;;;;5033620;28;20487;-77
2022/12/15 14:20:33;;;;;;;18.60;15.83;;;1.50;99.90;;;;;;5032223;28;20444;-77
2022/12/15 14:23:01;;;;;;;17.30;15.60;;;1.50;99.90;;;;;;5033956;28;20415;-77
2022/12/15 14:25:30;;;;;;;17.90;16.00;;;1.50;99.90;;;;;;5033268;28;20820;-76
2022/12/15 14:27:58;;;;;;;18.50;16.60;;;1.50;99.90;;;;;;5032250;28;20871;-77
2022/12/15 14:30:37;;;;;;;20.83;18.67;;;1.40;99.90;;;;;;5033463;28;20457;-76
2022/12/15 14:33:16;;;;;;;18.77;16.83;;;1.40;99.90;;;;;;5033178;28;20444;-77
2022/12/15 14:35:50;;;;;;;19.30;17.30;;;1.40;99.90;;;;;;5031891;28;20831;-76
2022/12/15 14:38:23;;;;;;;18.60;16.80;;;1.40;99.90;;;;;;5031995;28;20502;-76
2022/12/15 14:40:58;;;;;;;20.90;17.93;;;1.40;99.90;;;;;;5033467;28;20455;-76
2022/12/15 14:43:31;;;;;;;18.73;17.03;;;1.30;99.90;;;;;;5033186;28;20922;-76
2022/12/15 14:46:07;;;;;;;18.10;16.17;;;1.30;99.90;;;;;;5031922;28;21003;-76
2022/12/15 14:48:52;;;;;;;20.47;18.40;;;1.30;99.90;;;;;;5031557;28;21016;-77
2022/12/15 14:51:31;;;;;;;20.60;18.70;;;1.20;99.90;;;;;;5031743;28;20476;-76
2022/12/15 14:53:59;;;;;;;19.87;17.97;;;1.20;99.90;;;;;;5031791;28;20506;-77
2022/12/15 14:56:32;;;;;;;19.00;17.37;;;1.20;99.90;;;;;;5033508;28;20435;-76
2022/12/15 14:59:06;;;;;;;18.90;17.10;;;1.20;99.90;;;;;;5031752;28;20832;-76
2022/12/15 15:01:40;;;;;;;20.30;18.40;;;1.10;99.90;;;;;;5033292;28;20549;-76
2022/12/15 15:04:27;;;;;;;20.47;18.40;;;1.10;99.90;;;;;;5033232;28;20494;-77
2022/12/15 15:06:59;;;;;;;21.70;19.60;;;1.10;99.90;;;;;;5031930;28;20464;-76
2022/12/15 15:09:30;;;;;;;22.27;20.10;;;1.10;99.90;;;;;;5031956;28;20467;-76
2022/12/15 15:12:04;;;;;;;21.60;19.60;;;1.00;99.90;;;;;;5033135;28;20926;-76
2022/12/15 15:14:41;;;;;;;23.03;20.73;;;1.00;99.90;;;;;;5033061;28;20456;-76
2022/12/15 15:17:23;;;;;;;24.57;22.10;;;0.90;99.90;;;;;;5031541;28;20452;-76
2022/12/15 15:19:58;;;;;;;25.23;23.00;;;0.90;99.90;;;;;;5031470;28;20461;-76
2022/12/15 15:22:39;;;;;;;40.80;37.07;;;0.80;99.90;;;;;;5033059;28;20423;-76
2022/12/15 15:25:27;;;;;;;28.13;25.30;;;0.80;99.90;;;;;;5031439;28;20471;-76
2022/12/15 15:28:15;;;;;;;27.50;25.10;;;0.70;99.90;;;;;;5032829;28;20439;-76